createdAt,value
2023-12-08T00:00:09.002Z,42.80
2023-12-08T00:02:36.194Z,46.10
2023-12-08T00:05:04.645Z,47.50
2023-12-08T00:07:31.476Z,47.30
2023-12-08T00:09:59.154Z,49.50
2023-12-08T00:12:25.938Z,46.60
2023-12-08T00:14:52.938Z,45.00
2023-12-08T00:17:21.325Z,47.00
2023-12-08T00:19:48.090Z,41.10
2023-12-08T00:22:14.866Z,46.80
2023-12-08T00:24:41.753Z,44.10
2023-12-08T00:27:08.829Z,42.80
2023-12-08T00:29:35.988Z,44.60
2023-12-08T00:32:03.009Z,42.60
2023-12-08T00:34:29.794Z,39.60
2023-12-08T00:36:57.019Z,41.00
2023-12-08T00:39:23.910Z,42.30
2023-12-08T00:41:50.800Z,46.80
2023-12-08T00:44:17.869Z,46.00
2023-12-08T00:46:44.773Z,45.30
2023-12-08T00:49:11.898Z,49.70
2023-12-08T00:51:39.497Z,41.20
2023-12-08T00:54:06.272Z,43.30
2023-12-08T00:56:33.433Z,41.70
2023-12-08T00:59:00.528Z,48.10
2023-12-08T01:01:27.521Z,43.90
2023-12-08T01:03:54.570Z,46.00
2023-12-08T01:06:21.717Z,46.80
2023-12-08T01:08:48.623Z,42.50
2023-12-08T01:11:15.751Z,40.90
2023-12-08T01:13:42.492Z,43.30
2023-12-08T01:16:09.511Z,42.50
2023-12-08T01:18:36.556Z,43.50
2023-12-08T01:21:04.486Z,45.70
2023-12-08T01:23:31.466Z,45.90
2023-12-08T01:25:58.803Z,46.20
2023-12-08T01:28:25.753Z,46.40
2023-12-08T01:30:52.655Z,43.70
2023-12-08T01:33:28.816Z,42.40
2023-12-08T01:36:37.442Z,42.50
2023-12-08T01:38:47.417Z,41.00
2023-12-08T01:41:17.887Z,46.00
2023-12-08T01:43:45.460Z,42.40
2023-12-08T01:46:20.710Z,42.50
2023-12-08T01:48:48.775Z,43.90
2023-12-08T01:51:17.748Z,47.50
2023-12-08T01:53:46.976Z,48.40
2023-12-08T01:56:15.344Z,45.70
2023-12-08T01:58:42.502Z,40.00
2023-12-08T02:01:11.647Z,44.00
2023-12-08T02:03:41.545Z,47.90
2023-12-08T02:06:11.010Z,46.00
2023-12-08T02:08:38.547Z,40.00
2023-12-08T02:11:05.790Z,42.50
2023-12-08T02:13:33.497Z,41.40
2023-12-08T02:16:33.128Z,41.10
2023-12-08T02:19:00.929Z,35.20
2023-12-08T02:21:28.991Z,40.10
2023-12-08T02:23:56.172Z,42.20
2023-12-08T02:26:22.892Z,39.30
2023-12-08T02:28:49.980Z,42.70
2023-12-08T02:31:20.937Z,41.30
2023-12-08T02:33:52.977Z,45.20
2023-12-08T02:36:21.129Z,42.70
2023-12-08T02:38:49.355Z,46.00
2023-12-08T02:41:16.412Z,40.40
2023-12-08T02:43:43.561Z,44.90
2023-12-08T02:46:10.506Z,40.70
2023-12-08T02:48:37.492Z,43.00
2023-12-08T02:51:05.188Z,42.80
2023-12-08T02:53:32.280Z,45.40
2023-12-08T02:55:59.268Z,38.40
2023-12-08T02:58:26.796Z,41.60
2023-12-08T03:00:53.730Z,43.20
2023-12-08T03:03:20.613Z,40.80
2023-12-08T03:05:47.698Z,38.60
2023-12-08T03:08:14.602Z,42.80
2023-12-08T03:10:41.501Z,46.20
2023-12-08T03:13:08.552Z,44.00
2023-12-08T03:15:35.448Z,46.00
2023-12-08T03:18:02.410Z,44.30
2023-12-08T03:20:29.318Z,44.90
2023-12-08T03:22:56.980Z,42.40
2023-12-08T03:25:23.890Z,44.80
2023-12-08T03:27:51.075Z,43.40
2023-12-08T03:30:18.155Z,37.20
2023-12-08T03:32:45.035Z,38.40
2023-12-08T03:35:12.611Z,39.80
2023-12-08T03:37:39.563Z,39.10
2023-12-08T03:40:07.223Z,40.90
2023-12-08T03:42:38.032Z,42.80
2023-12-08T03:45:06.301Z,41.20
2023-12-08T03:47:33.523Z,38.60
2023-12-08T03:50:00.691Z,40.80
2023-12-08T03:52:28.095Z,37.80
2023-12-08T03:54:55.014Z,39.80
2023-12-08T03:57:22.644Z,42.10
2023-12-08T03:59:49.652Z,40.90
2023-12-08T04:02:16.689Z,38.90
2023-12-08T04:04:43.864Z,37.90
2023-12-08T04:07:10.803Z,35.40
2023-12-08T04:09:37.692Z,39.00
2023-12-08T04:12:05.044Z,37.40
2023-12-08T04:14:32.006Z,34.10
2023-12-08T04:16:59.035Z,33.30
2023-12-08T04:19:26.634Z,35.30
2023-12-08T04:21:53.712Z,37.00
2023-12-08T04:24:20.664Z,36.90
2023-12-08T04:26:48.122Z,37.40
2023-12-08T04:29:15.198Z,34.40
2023-12-08T04:31:42.149Z,29.60
2023-12-08T04:34:09.514Z,29.80
2023-12-08T04:36:36.554Z,31.80
2023-12-08T04:39:03.986Z,28.50
2023-12-08T04:41:31.435Z,34.30
2023-12-08T04:43:58.394Z,29.40
2023-12-08T04:46:26.141Z,30.70
2023-12-08T04:48:53.250Z,32.20
2023-12-08T04:51:20.959Z,32.10
2023-12-08T04:53:47.905Z,28.90
2023-12-08T04:56:14.905Z,28.60
2023-12-08T04:58:41.664Z,33.50
2023-12-08T05:01:13.764Z,29.90
2023-12-08T05:03:41.623Z,31.50
2023-12-08T05:06:09.788Z,28.60
2023-12-08T05:08:37.402Z,29.50
2023-12-08T05:11:04.517Z,30.60
2023-12-08T05:13:31.479Z,25.30
2023-12-08T05:15:58.369Z,26.60
2023-12-08T05:18:25.595Z,30.20
2023-12-08T05:20:53.076Z,27.90
2023-12-08T05:23:19.960Z,29.30
2023-12-08T05:25:47.195Z,30.10
2023-12-08T05:28:13.892Z,33.00
2023-12-08T05:30:40.793Z,30.70
2023-12-08T05:33:08.092Z,30.30
2023-12-08T05:35:35.117Z,26.40
2023-12-08T05:38:02.064Z,28.50
2023-12-08T05:40:29.508Z,29.70
2023-12-08T05:42:56.449Z,28.40
2023-12-08T05:45:23.389Z,29.30
2023-12-08T05:47:50.604Z,25.10
2023-12-08T05:50:18.492Z,26.00
2023-12-08T05:52:45.395Z,30.70
2023-12-08T05:55:12.324Z,24.60
2023-12-08T05:57:39.408Z,31.00
2023-12-08T06:00:08.063Z,25.80
2023-12-08T06:02:35.044Z,30.70
2023-12-08T06:05:01.951Z,25.30
2023-12-08T06:07:29.250Z,25.70
2023-12-08T06:09:56.998Z,23.20
2023-12-08T06:12:26.322Z,24.90
2023-12-08T06:14:53.384Z,32.30
2023-12-08T06:17:20.528Z,29.10
2023-12-08T06:19:47.539Z,26.90
2023-12-08T06:22:14.724Z,28.40
2023-12-08T06:24:41.974Z,26.60
2023-12-08T06:27:08.887Z,33.20
2023-12-08T06:29:35.687Z,34.20
2023-12-08T06:32:02.899Z,27.90
2023-12-08T06:34:30.419Z,28.70
2023-12-08T06:36:57.472Z,27.70
2023-12-08T06:39:24.649Z,23.70
2023-12-08T06:41:51.629Z,25.00
2023-12-08T06:44:18.706Z,25.10
2023-12-08T06:46:46.008Z,26.80
2023-12-08T06:49:14.622Z,26.30
2023-12-08T06:51:41.627Z,28.10
2023-12-08T06:54:08.798Z,27.60
2023-12-08T06:56:35.985Z,28.10
2023-12-08T06:59:03.289Z,26.10
2023-12-08T07:01:30.401Z,27.80
2023-12-08T07:03:57.365Z,25.90
2023-12-08T07:06:24.381Z,26.50
2023-12-08T07:08:52.010Z,28.20
2023-12-08T07:11:19.035Z,27.80
2023-12-08T07:13:45.985Z,28.00
2023-12-08T07:16:12.819Z,27.50
2023-12-08T07:18:39.919Z,27.00
2023-12-08T07:21:07.242Z,27.30
2023-12-08T07:23:35.320Z,28.00
2023-12-08T07:26:03.745Z,26.80
2023-12-08T07:28:30.699Z,27.10
2023-12-08T07:30:58.163Z,28.30
2023-12-08T07:33:25.424Z,28.80
2023-12-08T07:35:55.109Z,25.80
2023-12-08T07:38:22.130Z,25.50
2023-12-08T07:40:49.145Z,27.30
2023-12-08T07:43:16.116Z,27.80
2023-12-08T07:45:43.264Z,23.50
2023-12-08T07:48:10.583Z,26.70
2023-12-08T07:50:37.717Z,27.00
2023-12-08T07:53:04.948Z,26.70
2023-12-08T07:55:31.884Z,25.90
2023-12-08T07:57:58.803Z,26.20
2023-12-08T08:00:26.585Z,31.40
2023-12-08T08:02:53.468Z,26.90
2023-12-08T08:05:20.601Z,27.60
2023-12-08T08:07:48.365Z,25.90
2023-12-08T08:10:15.052Z,26.00
2023-12-08T08:12:41.746Z,27.80
2023-12-08T08:15:09.266Z,28.90
2023-12-08T08:17:36.254Z,28.20
2023-12-08T08:20:03.390Z,27.60
2023-12-08T08:22:32.996Z,30.50
2023-12-08T08:25:01.518Z,26.90
2023-12-08T08:27:29.414Z,28.40
2023-12-08T08:29:56.727Z,28.70
2023-12-08T08:32:23.739Z,31.00
2023-12-08T08:34:55.253Z,29.50
2023-12-08T08:37:25.084Z,27.90
2023-12-08T08:39:52.261Z,28.30
2023-12-08T08:42:19.226Z,28.60
2023-12-08T08:44:46.363Z,31.30
2023-12-08T08:47:13.656Z,24.90
2023-12-08T08:49:40.919Z,26.90
2023-12-08T08:52:08.431Z,29.30
2023-12-08T08:54:35.397Z,28.80
2023-12-08T08:57:02.527Z,24.00
2023-12-08T08:59:29.596Z,29.40
2023-12-08T09:01:56.545Z,26.40
2023-12-08T09:04:23.793Z,25.70
2023-12-08T09:06:51.650Z,21.00
2023-12-08T09:09:18.900Z,21.90
2023-12-08T09:11:46.015Z,20.20
2023-12-08T09:14:13.252Z,19.70
2023-12-08T09:16:40.738Z,19.80
2023-12-08T09:19:08.460Z,20.00
2023-12-08T09:21:42.548Z,16.80
2023-12-08T09:24:16.341Z,17.40
2023-12-08T09:26:43.515Z,15.80
2023-12-08T09:29:11.018Z,14.90
2023-12-08T09:31:38.116Z,14.70
2023-12-08T09:34:05.678Z,19.60
2023-12-08T09:36:32.864Z,18.60
2023-12-08T09:38:59.820Z,20.00
2023-12-08T09:41:28.884Z,16.40
2023-12-08T09:44:08.152Z,17.60
2023-12-08T09:46:36.436Z,17.80
2023-12-08T09:49:05.328Z,19.40
2023-12-08T09:51:32.373Z,17.50
2023-12-08T09:54:00.466Z,16.80
2023-12-08T09:56:29.780Z,16.20
2023-12-08T09:58:56.805Z,15.80
2023-12-08T10:01:24.000Z,17.40
2023-12-08T10:03:51.501Z,18.80
2023-12-08T10:06:20.601Z,17.60
2023-12-08T10:08:47.615Z,17.50
2023-12-08T10:11:16.273Z,17.30
2023-12-08T10:13:44.240Z,17.40
2023-12-08T10:16:11.934Z,17.80
2023-12-08T10:18:38.879Z,18.80
2023-12-08T10:21:18.188Z,16.50
2023-12-08T10:23:46.328Z,16.10
2023-12-08T10:26:17.629Z,17.30
2023-12-08T10:28:44.530Z,17.70
2023-12-08T10:31:14.228Z,14.10
2023-12-08T10:33:43.154Z,14.40
2023-12-08T10:36:10.622Z,14.70
2023-12-08T10:38:38.038Z,16.90
2023-12-08T10:41:06.945Z,16.80
2023-12-08T10:43:33.894Z,16.10
2023-12-08T10:46:01.941Z,18.00
2023-12-08T10:48:28.960Z,17.10
2023-12-08T10:50:57.044Z,17.30
2023-12-08T10:53:23.850Z,16.90
2023-12-08T10:56:07.828Z,14.10
2023-12-08T10:58:37.464Z,18.00
2023-12-08T11:01:08.746Z,18.40
2023-12-08T11:03:36.852Z,19.00
2023-12-08T11:06:16.614Z,16.60
2023-12-08T11:11:15.344Z,15.40
2023-12-08T11:13:47.170Z,16.20
2023-12-08T11:16:56.721Z,18.00
2023-12-08T11:19:25.015Z,17.90
2023-12-08T11:21:54.079Z,18.40
2023-12-08T11:24:23.084Z,18.70
2023-12-08T11:27:08.592Z,18.70
2023-12-08T11:29:49.249Z,18.80
2023-12-08T11:32:40.414Z,16.90
2023-12-08T11:35:13.707Z,17.10
2023-12-08T11:37:44.807Z,18.10
2023-12-08T11:40:13.595Z,16.70
2023-12-08T11:42:43.466Z,17.80
2023-12-08T11:45:12.226Z,17.80
2023-12-08T11:47:39.449Z,18.60
2023-12-08T11:50:08.597Z,19.80
2023-12-08T11:52:40.085Z,18.10
2023-12-08T11:55:15.146Z,20.40
2023-12-08T11:57:55.850Z,19.80
2023-12-08T12:00:24.527Z,17.40
2023-12-08T12:02:52.527Z,18.00
2023-12-08T12:05:20.355Z,18.70
2023-12-08T12:07:51.267Z,16.70
2023-12-08T12:10:22.955Z,20.30
2023-12-08T12:12:54.862Z,19.90
2023-12-08T12:15:24.909Z,19.50
2023-12-08T12:17:55.577Z,19.00
2023-12-08T12:20:22.554Z,20.80
2023-12-08T12:22:49.734Z,21.60
2023-12-08T12:25:16.749Z,19.20
2023-12-08T12:27:47.532Z,21.60
2023-12-08T12:30:15.932Z,18.00
2023-12-08T12:32:42.998Z,20.20
2023-12-08T12:35:10.183Z,19.70
2023-12-08T12:37:37.120Z,19.40
2023-12-08T12:40:09.039Z,20.00
2023-12-08T12:42:47.372Z,20.30
2023-12-08T12:45:29.860Z,20.60
2023-12-08T12:48:10.907Z,18.80
2023-12-08T12:50:56.147Z,18.10
2023-12-08T12:53:24.198Z,23.10
2023-12-08T12:55:51.303Z,18.50
2023-12-08T12:58:22.745Z,19.30
2023-12-08T13:00:50.792Z,17.40
2023-12-08T13:03:20.005Z,18.30
2023-12-08T13:05:56.352Z,21.00
2023-12-08T13:08:24.470Z,19.60
2023-12-08T13:10:53.049Z,19.70
2023-12-08T13:13:20.531Z,20.30
2023-12-08T13:15:47.721Z,20.20
2023-12-08T13:18:15.100Z,19.40
2023-12-08T13:20:42.980Z,20.50
2023-12-08T13:23:09.868Z,18.50
2023-12-08T13:25:37.617Z,18.00
2023-12-08T13:28:06.752Z,17.40
2023-12-08T13:30:33.987Z,18.80
2023-12-08T13:33:04.612Z,18.70
2023-12-08T13:35:34.297Z,18.70
2023-12-08T13:38:01.429Z,18.20
2023-12-08T13:40:29.967Z,17.50
2023-12-08T13:42:57.088Z,19.40
2023-12-08T13:45:24.029Z,15.30
2023-12-08T13:47:51.282Z,17.00
2023-12-08T13:50:18.654Z,17.00
2023-12-08T13:52:45.647Z,16.60
2023-12-08T13:55:12.584Z,16.80
2023-12-08T13:57:41.722Z,16.00
2023-12-08T14:00:09.651Z,16.50
2023-12-08T14:02:37.774Z,16.70
2023-12-08T14:05:05.302Z,16.70
2023-12-08T14:07:32.593Z,16.90
2023-12-08T14:09:59.708Z,15.40
2023-12-08T14:12:27.399Z,15.90
2023-12-08T14:14:54.466Z,16.30
2023-12-08T14:17:21.893Z,13.50
2023-12-08T14:19:48.887Z,14.60
2023-12-08T14:22:15.814Z,14.90
2023-12-08T14:24:42.666Z,16.90
2023-12-08T14:27:09.799Z,14.40
2023-12-08T14:29:36.710Z,15.20
2023-12-08T14:32:03.745Z,14.60
2023-12-08T14:34:30.753Z,14.70
2023-12-08T14:36:58.123Z,17.50
2023-12-08T14:39:25.225Z,16.60
2023-12-08T14:41:52.308Z,15.60
2023-12-08T14:44:19.346Z,15.30
2023-12-08T14:46:50.459Z,13.30
2023-12-08T14:49:22.225Z,16.00
2023-12-08T14:51:49.199Z,13.20
2023-12-08T14:54:22.585Z,14.60
2023-12-08T14:56:53.627Z,15.20
2023-12-08T14:59:20.702Z,15.30
2023-12-08T15:01:47.740Z,16.80
2023-12-08T15:04:15.548Z,14.80
2023-12-08T15:06:42.793Z,16.00
2023-12-08T15:09:10.378Z,14.60
2023-12-08T15:11:37.721Z,16.50
2023-12-08T15:14:04.534Z,15.40
2023-12-08T15:16:31.242Z,16.00
2023-12-08T15:18:58.529Z,17.30
2023-12-08T15:21:28.014Z,16.20
2023-12-08T15:23:58.294Z,16.70
2023-12-08T15:26:26.250Z,15.20
2023-12-08T15:28:53.052Z,14.60
2023-12-08T15:31:20.146Z,16.80
2023-12-08T15:33:47.948Z,17.20
2023-12-08T15:36:15.347Z,17.90
2023-12-08T15:38:45.384Z,13.70
2023-12-08T15:41:12.594Z,18.80
2023-12-08T15:43:40.241Z,20.70
2023-12-08T15:46:08.408Z,18.30
2023-12-08T15:48:36.186Z,15.40
2023-12-08T15:51:09.723Z,18.80
2023-12-08T15:53:37.022Z,17.90
2023-12-08T15:56:04.028Z,17.40
2023-12-08T15:58:31.028Z,17.40
2023-12-08T16:00:58.015Z,15.40
2023-12-08T16:03:25.083Z,16.10
2023-12-08T16:05:52.264Z,16.60
2023-12-08T16:08:19.478Z,16.20
2023-12-08T16:10:46.408Z,17.40
2023-12-08T16:13:13.163Z,16.50
2023-12-08T16:15:40.552Z,17.30
2023-12-08T16:18:07.415Z,18.90
2023-12-08T16:20:35.287Z,18.30
2023-12-08T16:23:02.364Z,15.70
2023-12-08T16:25:29.082Z,14.90
2023-12-08T16:27:56.607Z,15.80
2023-12-08T16:30:24.009Z,16.40
2023-12-08T16:32:51.056Z,17.20
2023-12-08T16:35:17.829Z,13.60
2023-12-08T16:37:46.536Z,16.20
2023-12-08T16:40:13.750Z,12.90
2023-12-08T16:42:40.844Z,17.80
2023-12-08T16:45:08.243Z,16.20
2023-12-08T16:47:35.511Z,17.00
2023-12-08T16:50:02.563Z,16.70
2023-12-08T16:52:30.326Z,15.80
2023-12-08T16:54:57.589Z,19.10
2023-12-08T16:57:24.621Z,16.20
2023-12-08T16:59:52.949Z,17.60
2023-12-08T17:02:19.946Z,17.00
2023-12-08T17:04:47.334Z,13.80
2023-12-08T17:07:14.482Z,18.40
2023-12-08T17:09:42.017Z,20.60
2023-12-08T17:12:09.093Z,18.30
2023-12-08T17:14:36.087Z,16.20
2023-12-08T17:17:04.182Z,15.90
2023-12-08T17:19:31.029Z,15.90
2023-12-08T17:21:58.707Z,13.70
2023-12-08T17:24:26.021Z,16.90
2023-12-08T17:26:55.634Z,14.90
2023-12-08T17:29:23.668Z,16.60
2023-12-08T17:31:50.752Z,15.50
2023-12-08T17:34:22.485Z,15.70
2023-12-08T17:36:51.932Z,14.70
2023-12-08T17:39:19.192Z,17.00
2023-12-08T17:41:47.341Z,17.50
2023-12-08T17:44:14.886Z,17.50
2023-12-08T17:46:42.342Z,17.80
2023-12-08T17:49:16.801Z,15.20
2023-12-08T17:51:43.837Z,14.30
2023-12-08T17:54:10.770Z,15.80
2023-12-08T17:56:37.715Z,14.20
2023-12-08T17:59:04.555Z,14.50
2023-12-08T18:01:31.649Z,16.40
2023-12-08T18:03:58.665Z,19.90
2023-12-08T18:06:27.232Z,16.00
2023-12-08T18:08:54.364Z,16.10
2023-12-08T18:11:24.800Z,18.00
2023-12-08T18:13:53.412Z,16.40
2023-12-08T18:16:31.425Z,17.20
2023-12-08T18:18:59.094Z,17.60
2023-12-08T18:21:27.745Z,15.60
2023-12-08T18:23:55.469Z,15.50
2023-12-08T18:26:23.163Z,15.00
2023-12-08T18:31:30.421Z,15.50
2023-12-08T18:33:58.782Z,13.80
2023-12-08T18:36:27.200Z,15.60
2023-12-08T18:38:57.514Z,15.10
2023-12-08T18:41:24.941Z,13.30
2023-12-08T18:43:51.781Z,13.50
2023-12-08T18:46:19.004Z,15.60
2023-12-08T18:48:47.242Z,16.00
2023-12-08T18:51:15.275Z,14.70
2023-12-08T18:53:43.557Z,15.90
2023-12-08T18:56:10.972Z,15.00
2023-12-08T18:58:38.690Z,15.20
2023-12-08T19:01:06.716Z,15.50
2023-12-08T19:03:33.627Z,16.30
2023-12-08T19:06:01.045Z,15.00
2023-12-08T19:08:28.725Z,16.60
2023-12-08T19:10:55.718Z,17.60
2023-12-08T19:13:22.760Z,17.50
2023-12-08T19:15:56.388Z,17.50
2023-12-08T19:18:24.262Z,14.80
2023-12-08T19:20:51.075Z,16.00
2023-12-08T19:23:18.597Z,17.70
2023-12-08T19:25:45.405Z,15.90
2023-12-08T19:28:12.916Z,14.70
2023-12-08T19:30:40.594Z,15.50
2023-12-08T19:33:08.939Z,16.30
2023-12-08T19:35:36.450Z,16.80
2023-12-08T19:38:04.671Z,18.50
2023-12-08T19:40:31.397Z,16.10
2023-12-08T19:42:58.983Z,16.90
2023-12-08T19:45:27.049Z,16.20
2023-12-08T19:47:56.558Z,14.40
2023-12-08T19:50:24.460Z,15.10
2023-12-08T19:52:51.508Z,16.40
2023-12-08T19:55:19.270Z,16.30
2023-12-08T19:57:46.304Z,16.60
2023-12-08T20:00:14.695Z,16.30
2023-12-08T20:02:42.643Z,18.10
2023-12-08T20:05:10.045Z,17.10
2023-12-08T20:07:37.614Z,15.80
2023-12-08T20:10:04.789Z,16.20
2023-12-08T20:12:31.827Z,16.50
2023-12-08T20:14:58.886Z,15.60
2023-12-08T20:17:26.347Z,14.70
2023-12-08T20:19:53.599Z,15.70
2023-12-08T20:22:22.575Z,16.20
2023-12-08T20:24:50.625Z,15.30
2023-12-08T20:27:18.268Z,15.90
2023-12-08T20:29:45.790Z,15.30
2023-12-08T20:32:12.684Z,16.20
2023-12-08T20:34:39.798Z,15.80
2023-12-08T20:37:06.969Z,15.70
2023-12-08T20:39:33.767Z,17.40
2023-12-08T20:42:00.624Z,16.10
2023-12-08T20:44:28.200Z,14.70
2023-12-08T20:46:56.365Z,16.10
2023-12-08T20:49:24.202Z,16.40
2023-12-08T20:51:51.860Z,16.20
2023-12-08T20:54:19.051Z,16.70
2023-12-08T20:56:45.970Z,17.60
2023-12-08T20:59:13.058Z,17.00
2023-12-08T21:01:40.938Z,17.10
2023-12-08T21:04:07.928Z,16.60
2023-12-08T21:06:35.089Z,16.40
2023-12-08T21:09:02.636Z,16.90
2023-12-08T21:11:32.195Z,15.40
2023-12-08T21:14:02.148Z,15.60
2023-12-08T21:18:55.719Z,13.30
2023-12-08T21:21:23.255Z,14.80
2023-12-08T21:23:50.197Z,17.20
2023-12-08T21:26:17.143Z,15.90
2023-12-08T21:28:44.167Z,17.30
2023-12-08T21:31:11.136Z,17.60
2023-12-08T21:33:38.429Z,18.20
2023-12-08T21:36:06.223Z,15.10
2023-12-08T21:38:33.209Z,20.90
2023-12-08T21:41:01.075Z,16.50
2023-12-08T21:43:28.180Z,19.30
2023-12-08T21:45:54.980Z,18.20
2023-12-08T21:48:21.882Z,16.10
2023-12-08T21:50:49.353Z,17.20
2023-12-08T21:53:16.655Z,14.90
2023-12-08T21:55:43.501Z,15.30
2023-12-08T21:58:10.426Z,17.10
2023-12-08T22:00:37.619Z,21.30
2023-12-08T22:03:06.223Z,17.50
2023-12-08T22:05:33.699Z,17.90
2023-12-08T22:08:00.721Z,17.20
2023-12-08T22:10:27.766Z,20.20
2023-12-08T22:12:57.064Z,16.30
2023-12-08T22:15:23.920Z,17.90
2023-12-08T22:17:50.918Z,16.50
2023-12-08T22:20:18.124Z,16.90
2023-12-08T22:22:44.962Z,17.30
2023-12-08T22:25:11.789Z,18.40
2023-12-08T22:27:38.830Z,16.90
2023-12-08T22:30:07.172Z,18.40
2023-12-08T22:32:34.267Z,14.30
2023-12-08T22:35:02.527Z,15.10
2023-12-08T22:37:29.772Z,17.50
2023-12-08T22:39:56.883Z,16.50
2023-12-08T22:51:25.611Z,13.10
2023-12-08T23:09:58.881Z,11.60
2023-12-08T23:12:26.079Z,15.60
2023-12-08T23:15:34.463Z,16.50
2023-12-08T23:18:14.402Z,15.70
2023-12-08T23:20:42.014Z,16.30
2023-12-08T23:23:09.067Z,15.80
2023-12-08T23:25:36.038Z,17.60
2023-12-08T23:28:03.168Z,19.70
2023-12-08T23:30:30.105Z,17.50
2023-12-08T23:32:57.561Z,16.40
2023-12-08T23:35:26.905Z,17.00
2023-12-08T23:37:53.814Z,18.90
2023-12-08T23:40:21.059Z,18.20
2023-12-08T23:42:47.829Z,18.80
2023-12-08T23:45:55.779Z,17.50
2023-12-08T23:49:32.070Z,17.40
2023-12-08T23:52:46.237Z,17.60
2023-12-08T23:57:41.885Z,14.40
